createdAt,value
2019-03-16T00:00:35.115Z,2.40
2019-03-16T00:03:04.719Z,2.90
2019-03-16T00:05:33.693Z,2.67
2019-03-16T00:08:04.823Z,3.30
2019-03-16T00:10:33.906Z,3.40
2019-03-16T00:13:02.836Z,2.58
2019-03-16T00:15:31.879Z,3.00
2019-03-16T00:18:00.855Z,2.92
2019-03-16T00:20:32.741Z,3.40
2019-03-16T00:23:01.785Z,3.27
2019-03-16T00:25:33.256Z,3.00
2019-03-16T00:28:03.775Z,2.90
2019-03-16T00:30:35.993Z,2.75
2019-03-16T00:33:04.952Z,3.47
2019-03-16T00:35:36.779Z,3.08
2019-03-16T00:38:08.975Z,2.75
2019-03-16T00:40:37.967Z,3.77
2019-03-16T00:43:06.935Z,2.98
2019-03-16T00:45:35.900Z,3.27
2019-03-16T00:48:04.871Z,3.62
2019-03-16T00:50:33.869Z,3.98
2019-03-16T00:53:03.915Z,4.10
2019-03-16T00:58:01.523Z,3.90
2019-03-16T01:00:31.381Z,4.22
2019-03-16T01:03:00.413Z,3.95
2019-03-16T01:05:29.451Z,3.72
2019-03-16T01:07:58.465Z,3.27
2019-03-16T01:10:27.497Z,3.50
2019-03-16T01:12:56.456Z,2.98
2019-03-16T01:15:28.603Z,3.10
2019-03-16T01:17:57.589Z,3.20
2019-03-16T01:20:26.946Z,3.40
2019-03-16T01:22:56.306Z,3.35
2019-03-16T01:25:32.937Z,3.12
2019-03-16T01:28:06.414Z,3.62
2019-03-16T01:30:38.986Z,3.58
2019-03-16T01:33:08.163Z,3.42
2019-03-16T01:35:37.663Z,3.00
2019-03-16T01:38:09.056Z,3.65
2019-03-16T01:40:38.198Z,3.60
2019-03-16T01:43:09.982Z,3.13
2019-03-16T01:45:40.829Z,3.52
2019-03-16T01:48:09.779Z,3.05
2019-03-16T01:50:38.775Z,3.37
2019-03-16T01:53:08.374Z,2.90
2019-03-16T01:55:40.404Z,2.80
2019-03-16T01:58:09.368Z,3.10
2019-03-16T02:00:38.328Z,2.80
2019-03-16T02:03:07.420Z,3.17
2019-03-16T02:05:36.358Z,3.30
2019-03-16T02:08:09.439Z,2.90
2019-03-16T02:10:38.427Z,2.80
2019-03-16T02:13:09.528Z,2.87
2019-03-16T02:15:41.365Z,3.20
2019-03-16T02:18:13.540Z,2.98
2019-03-16T02:20:44.575Z,3.22
2019-03-16T02:23:17.740Z,3.15
2019-03-16T02:25:46.710Z,2.83
2019-03-16T02:28:15.669Z,2.80
2019-03-16T02:30:46.417Z,3.30
2019-03-16T02:33:15.422Z,3.10
2019-03-16T02:35:47.079Z,2.95
2019-03-16T02:38:17.824Z,2.80
2019-03-16T02:40:46.902Z,2.92
2019-03-16T02:43:16.232Z,2.80
2019-03-16T02:45:45.262Z,3.05
2019-03-16T02:48:16.142Z,3.42
2019-03-16T02:50:46.260Z,2.80
2019-03-16T02:53:15.331Z,2.70
2019-03-16T02:55:44.370Z,2.40
2019-03-16T02:58:13.322Z,2.60
2019-03-16T03:00:45.069Z,3.02
2019-03-16T03:03:29.218Z,2.62
2019-03-16T03:05:54.543Z,3.08
2019-03-16T03:08:30.317Z,2.67
2019-03-16T03:10:59.677Z,2.90
2019-03-16T03:13:28.632Z,2.45
2019-03-16T03:15:57.635Z,2.70
2019-03-16T03:18:26.590Z,2.77
2019-03-16T03:20:58.943Z,3.70
2019-03-16T03:23:29.839Z,3.22
2019-03-16T03:25:58.804Z,3.52
2019-03-16T03:28:28.862Z,3.45
2019-03-16T03:30:59.373Z,3.65
2019-03-16T03:33:56.325Z,3.80
2019-03-16T03:36:00.114Z,3.65
2019-03-16T03:38:33.562Z,3.83
2019-03-16T03:41:04.232Z,3.67
2019-03-16T03:43:33.257Z,3.58
2019-03-16T03:46:02.227Z,4.30
2019-03-16T03:48:31.258Z,3.58
2019-03-16T03:51:00.211Z,4.35
2019-03-16T03:53:29.665Z,4.30
2019-03-16T03:55:58.662Z,4.40
2019-03-16T03:58:29.978Z,4.28
2019-03-16T04:00:58.476Z,4.95
2019-03-16T04:03:29.357Z,4.25
2019-03-16T04:05:58.329Z,6.03
2019-03-16T04:08:33.445Z,6.10
2019-03-16T04:11:12.467Z,6.15
2019-03-16T04:13:43.076Z,6.92
2019-03-16T04:16:12.093Z,7.22
2019-03-16T04:18:41.214Z,7.25
2019-03-16T04:21:10.172Z,7.93
2019-03-16T04:23:45.182Z,7.00
2019-03-16T04:26:15.058Z,7.85
2019-03-16T04:28:44.257Z,6.90
2019-03-16T04:31:15.912Z,7.85
2019-03-16T04:33:45.010Z,8.20
2019-03-16T04:36:13.985Z,8.05
2019-03-16T04:38:42.944Z,7.60
2019-03-16T04:41:14.698Z,7.35
2019-03-16T04:43:46.510Z,7.92
2019-03-16T04:46:15.506Z,8.40
2019-03-16T04:48:47.696Z,7.37
2019-03-16T04:51:22.810Z,6.60
2019-03-16T04:53:56.533Z,6.53
2019-03-16T04:56:32.065Z,5.83
2019-03-16T04:59:00.835Z,5.75
2019-03-16T05:01:29.789Z,6.08
2019-03-16T05:03:58.753Z,7.55
2019-03-16T05:06:30.479Z,6.47
2019-03-16T05:08:59.511Z,5.22
2019-03-16T05:11:28.529Z,5.53
2019-03-16T05:13:57.482Z,5.60
2019-03-16T05:16:29.076Z,5.78
2019-03-16T05:18:59.388Z,6.25
2019-03-16T05:21:28.399Z,5.87
2019-03-16T05:23:57.434Z,5.37
2019-03-16T05:26:29.875Z,5.87
2019-03-16T05:29:02.881Z,5.37
2019-03-16T05:31:32.819Z,5.50
2019-03-16T05:34:01.841Z,6.78
2019-03-16T05:36:33.945Z,6.35
2019-03-16T05:39:02.965Z,6.30
2019-03-16T05:41:31.929Z,5.58
2019-03-16T05:44:00.883Z,6.03
2019-03-16T05:46:29.895Z,5.97
2019-03-16T05:49:01.617Z,7.03
2019-03-16T05:51:32.396Z,6.47
2019-03-16T05:54:04.081Z,7.03
2019-03-16T05:56:33.051Z,6.47
2019-03-16T05:59:04.881Z,8.08
2019-03-16T06:01:33.920Z,6.85
2019-03-16T06:04:05.036Z,7.47
2019-03-16T06:06:34.005Z,7.78
2019-03-16T06:09:07.827Z,7.53
2019-03-16T06:11:36.792Z,7.22
2019-03-16T06:14:05.745Z,6.92
2019-03-16T06:16:36.183Z,8.60
2019-03-16T06:19:05.185Z,6.92
2019-03-16T06:21:34.217Z,7.45
2019-03-16T06:24:05.617Z,7.37
2019-03-16T06:26:34.943Z,7.40
2019-03-16T06:29:04.028Z,8.15
2019-03-16T06:31:34.220Z,5.77
2019-03-16T06:34:08.438Z,7.25
2019-03-16T06:36:37.672Z,7.03
2019-03-16T06:39:11.464Z,6.95
2019-03-16T06:41:43.321Z,5.37
2019-03-16T06:44:12.388Z,7.33
2019-03-16T06:46:41.374Z,6.08
2019-03-16T06:49:10.346Z,6.58
2019-03-16T06:51:39.294Z,6.08
2019-03-16T06:56:39.110Z,6.03
2019-03-16T06:59:08.080Z,7.12
2019-03-16T07:01:37.036Z,5.72
2019-03-16T07:04:06.828Z,5.65
2019-03-16T07:06:35.840Z,8.08
2019-03-16T07:09:06.163Z,6.70
2019-03-16T07:11:38.060Z,8.63
2019-03-16T07:14:08.950Z,6.30
2019-03-16T07:16:37.928Z,7.85
2019-03-16T07:19:10.215Z,8.25
2019-03-16T07:21:39.206Z,5.85
2019-03-16T07:24:08.486Z,6.90
2019-03-16T07:26:37.499Z,7.28
2019-03-16T07:29:07.518Z,6.53
2019-03-16T07:31:36.651Z,6.30
2019-03-16T07:34:05.574Z,7.73
2019-03-16T07:36:39.451Z,6.87
2019-03-16T07:39:09.758Z,6.90
2019-03-16T07:41:41.756Z,6.93
2019-03-16T07:44:10.729Z,6.17
2019-03-16T07:46:39.686Z,5.67
2019-03-16T07:49:08.672Z,6.22
2019-03-16T07:51:37.702Z,5.65
2019-03-16T07:54:11.771Z,4.90
2019-03-16T07:56:40.747Z,6.12
2019-03-16T07:59:10.822Z,5.92
2019-03-16T08:01:42.623Z,6.25
2019-03-16T08:04:16.027Z,5.72
2019-03-16T08:06:44.985Z,5.65
2019-03-16T08:09:14.026Z,5.97
2019-03-16T08:11:42.991Z,5.72
2019-03-16T08:14:11.974Z,6.60
2019-03-16T08:19:10.125Z,6.90
2019-03-16T08:21:41.632Z,7.35
2019-03-16T08:24:10.680Z,5.65
2019-03-16T08:26:40.894Z,8.63
2019-03-16T08:29:16.237Z,6.70
2019-03-16T08:31:47.938Z,7.08
2019-03-16T08:34:16.905Z,7.15
2019-03-16T08:36:45.930Z,7.92
2019-03-16T08:39:14.882Z,7.03
2019-03-16T08:41:43.860Z,6.15
2019-03-16T08:44:13.903Z,6.50
2019-03-16T08:49:15.490Z,6.12
2019-03-16T08:51:44.723Z,6.95
2019-03-16T08:54:14.048Z,6.65
2019-03-16T08:56:44.278Z,6.67
2019-03-16T08:59:14.877Z,5.00
2019-03-16T09:01:43.834Z,5.85
2019-03-16T09:04:12.810Z,6.50
2019-03-16T09:06:44.358Z,5.50
2019-03-16T09:09:14.328Z,6.03
2019-03-16T09:11:43.356Z,7.17
2019-03-16T09:14:12.374Z,6.03
2019-03-16T09:16:42.600Z,6.45
2019-03-16T09:19:15.006Z,5.65
2019-03-16T09:21:49.138Z,5.90
2019-03-16T09:24:18.175Z,5.33
2019-03-16T09:26:48.834Z,6.22
2019-03-16T09:29:18.012Z,4.78
2019-03-16T09:31:46.946Z,5.57
2019-03-16T09:34:17.087Z,5.75
2019-03-16T09:36:46.041Z,4.75
2019-03-16T09:39:15.974Z,5.67
2019-03-16T09:41:44.961Z,5.33
2019-03-16T09:44:17.092Z,4.80
2019-03-16T09:46:49.024Z,5.47
2019-03-16T09:49:22.058Z,4.78
2019-03-16T09:51:51.996Z,4.97
2019-03-16T09:54:21.052Z,3.83
2019-03-16T09:57:00.747Z,4.37
2019-03-16T09:59:20.652Z,4.65
2019-03-16T10:01:49.660Z,4.42
2019-03-16T10:04:18.654Z,4.80
2019-03-16T10:06:47.646Z,4.67
2019-03-16T10:09:16.782Z,4.10
2019-03-16T10:11:54.604Z,4.28
2019-03-16T10:14:23.582Z,3.70
2019-03-16T10:16:54.069Z,4.00
2019-03-16T10:19:24.576Z,3.92
2019-03-16T10:21:55.105Z,3.00
2019-03-16T10:24:24.082Z,2.45
2019-03-16T10:26:53.027Z,3.35
2019-03-16T10:29:27.559Z,3.00
2019-03-16T10:31:56.631Z,2.92
2019-03-16T10:34:32.091Z,3.15
2019-03-16T10:37:01.051Z,3.02
2019-03-16T10:39:31.341Z,1.98
2019-03-16T10:42:01.733Z,2.12
2019-03-16T10:44:30.741Z,2.17
2019-03-16T10:47:01.167Z,2.17
2019-03-16T10:49:30.141Z,2.20
2019-03-16T10:51:59.169Z,1.85
2019-03-16T10:54:28.171Z,2.02
2019-03-16T10:57:00.135Z,2.30
2019-03-16T10:59:32.445Z,1.95
2019-03-16T11:02:10.545Z,1.90
2019-03-16T11:04:39.508Z,2.30
2019-03-16T11:07:11.469Z,2.40
2019-03-16T11:09:40.446Z,2.17
2019-03-16T11:12:09.526Z,2.05
2019-03-16T11:14:41.065Z,2.20
2019-03-16T11:17:09.224Z,1.98
2019-03-16T11:19:39.427Z,1.87
2019-03-16T11:22:11.579Z,2.02
2019-03-16T11:24:42.078Z,1.57
2019-03-16T11:27:11.039Z,1.62
2019-03-16T11:29:40.679Z,2.02
2019-03-16T11:32:09.691Z,1.87
2019-03-16T11:34:40.469Z,1.02
2019-03-16T11:37:09.420Z,1.90
2019-03-16T11:39:42.025Z,1.62
2019-03-16T11:42:11.136Z,1.90
2019-03-16T11:44:40.122Z,2.00
2019-03-16T11:47:11.746Z,2.27
2019-03-16T11:49:40.715Z,2.45
2019-03-16T11:52:09.665Z,2.52
2019-03-16T11:54:40.122Z,2.17
2019-03-16T11:57:09.064Z,2.12
2019-03-16T11:59:39.542Z,2.12
2019-03-16T12:02:08.888Z,2.60
2019-03-16T12:04:37.853Z,2.35
2019-03-16T12:07:07.548Z,2.55
2019-03-16T12:09:36.491Z,2.15
2019-03-16T12:12:08.626Z,2.45
2019-03-16T12:14:37.546Z,2.17
2019-03-16T12:17:09.329Z,2.05
2019-03-16T12:19:39.922Z,2.70
2019-03-16T12:22:08.904Z,2.75
2019-03-16T12:24:41.208Z,2.60
2019-03-16T12:27:10.212Z,2.80
2019-03-16T12:29:40.829Z,3.22
2019-03-16T12:32:09.811Z,3.77
2019-03-16T12:34:38.849Z,3.10
2019-03-16T12:37:08.422Z,2.75
2019-03-16T12:39:37.374Z,3.00
2019-03-16T12:42:13.152Z,2.22
2019-03-16T12:44:42.106Z,2.65
2019-03-16T12:47:11.077Z,2.22
2019-03-16T12:49:40.061Z,2.62
2019-03-16T12:52:11.556Z,2.60
2019-03-16T12:54:41.383Z,2.12
2019-03-16T12:57:12.157Z,1.95
2019-03-16T12:59:46.785Z,2.10
2019-03-16T13:02:13.646Z,1.70
2019-03-16T13:04:42.754Z,2.42
2019-03-16T13:07:12.519Z,2.30
2019-03-16T13:09:42.439Z,2.17
2019-03-16T13:12:11.743Z,2.35
2019-03-16T13:14:42.451Z,2.27
2019-03-16T13:17:17.374Z,2.30
2019-03-16T13:19:46.424Z,2.10
2019-03-16T13:22:15.397Z,2.50
2019-03-16T13:24:44.399Z,2.80
2019-03-16T13:27:13.429Z,3.45
2019-03-16T13:29:42.463Z,2.13
2019-03-16T13:32:13.619Z,2.80
2019-03-16T13:34:49.732Z,2.83
2019-03-16T13:37:21.355Z,2.15
2019-03-16T13:39:50.305Z,2.25
2019-03-16T13:42:19.333Z,2.47
2019-03-16T13:44:48.364Z,2.00
2019-03-16T13:47:17.368Z,2.03
2019-03-16T13:49:47.904Z,2.10
2019-03-16T13:52:22.890Z,2.33
2019-03-16T13:54:51.885Z,2.80
2019-03-16T13:57:21.231Z,2.70
2019-03-16T13:59:50.235Z,2.60
2019-03-16T14:02:19.187Z,2.85
2019-03-16T14:04:48.829Z,2.72
2019-03-16T14:07:17.798Z,2.87
2019-03-16T14:09:46.766Z,2.70
2019-03-16T14:12:18.474Z,2.70
2019-03-16T14:14:48.236Z,2.80
2019-03-16T14:17:17.238Z,2.80
2019-03-16T14:19:47.870Z,2.65
2019-03-16T14:22:17.030Z,2.80
2019-03-16T14:24:49.114Z,2.63
2019-03-16T14:27:18.083Z,2.67
2019-03-16T14:29:47.220Z,2.33
2019-03-16T14:32:18.802Z,2.30
2019-03-16T14:34:48.158Z,2.67
2019-03-16T14:37:19.580Z,2.58
2019-03-16T14:39:48.620Z,2.10
2019-03-16T14:42:17.630Z,2.70
2019-03-16T14:44:49.252Z,2.42
2019-03-16T14:47:19.541Z,2.40
2019-03-16T14:49:51.678Z,2.25
2019-03-16T14:52:20.752Z,2.65
2019-03-16T14:54:49.766Z,2.10
2019-03-16T14:57:22.142Z,2.20
2019-03-16T14:59:51.321Z,2.58
2019-03-16T15:02:24.291Z,2.45
2019-03-16T15:04:53.266Z,2.60
2019-03-16T15:07:22.281Z,3.35
2019-03-16T15:09:51.237Z,2.67
2019-03-16T15:12:20.269Z,2.60
2019-03-16T15:14:56.176Z,3.02
2019-03-16T15:17:25.626Z,3.22
2019-03-16T15:19:56.319Z,3.00
2019-03-16T15:22:25.454Z,3.20
2019-03-16T15:25:03.929Z,3.05
2019-03-16T15:27:34.512Z,2.40
2019-03-16T15:30:18.846Z,3.25
2019-03-16T15:32:49.378Z,3.25
2019-03-16T15:35:20.721Z,3.15
2019-03-16T15:37:49.691Z,2.70
2019-03-16T15:40:21.414Z,2.90
2019-03-16T15:42:52.555Z,2.40
2019-03-16T15:45:22.187Z,2.92
2019-03-16T15:47:52.215Z,2.60
2019-03-16T15:52:58.277Z,2.52
2019-03-16T15:55:29.932Z,2.83
2019-03-16T15:58:07.886Z,3.00
2019-03-16T16:00:33.833Z,3.15
2019-03-16T16:03:02.793Z,2.70
2019-03-16T16:05:33.893Z,3.02
2019-03-16T16:08:02.841Z,2.45
2019-03-16T16:10:31.823Z,3.40
2019-03-16T16:13:00.800Z,2.45
2019-03-16T16:15:35.198Z,2.50
2019-03-16T16:18:04.187Z,2.65
2019-03-16T16:20:33.657Z,2.60
2019-03-16T16:23:02.638Z,3.05
2019-03-16T16:25:33.315Z,3.05
2019-03-16T16:28:02.476Z,2.87
2019-03-16T16:30:31.563Z,3.27
2019-03-16T16:33:00.499Z,2.97
2019-03-16T16:35:29.490Z,2.70
2019-03-16T16:38:05.102Z,2.87
2019-03-16T16:40:34.055Z,2.70
2019-03-16T16:43:03.023Z,2.60
2019-03-16T16:45:39.114Z,3.35
2019-03-16T16:48:09.112Z,3.55
2019-03-16T16:53:09.201Z,3.25
2019-03-16T16:55:43.735Z,3.05
2019-03-16T16:58:12.827Z,3.17
2019-03-16T17:00:44.244Z,3.12
2019-03-16T17:03:14.354Z,3.02
2019-03-16T17:05:44.526Z,2.70
2019-03-16T17:08:18.460Z,3.25
2019-03-16T17:10:49.082Z,2.92
2019-03-16T17:13:21.039Z,3.08
2019-03-16T17:15:51.849Z,3.40
2019-03-16T17:18:23.684Z,3.20
2019-03-16T17:20:54.971Z,2.80
2019-03-16T17:23:26.788Z,2.90
2019-03-16T17:25:59.074Z,3.25
2019-03-16T17:28:30.448Z,2.92
2019-03-16T17:31:00.790Z,3.60
2019-03-16T17:33:32.817Z,2.75
2019-03-16T17:36:01.840Z,2.87
2019-03-16T17:38:32.047Z,2.90
2019-03-16T17:41:02.652Z,2.90
2019-03-16T17:43:34.444Z,3.30
2019-03-16T17:46:06.308Z,3.22
2019-03-16T17:48:35.519Z,2.67
2019-03-16T17:51:07.546Z,3.08
2019-03-16T17:53:38.234Z,3.30
2019-03-16T17:56:07.243Z,3.05
2019-03-16T17:58:36.206Z,3.00
2019-03-16T18:01:05.185Z,2.92
2019-03-16T18:03:34.279Z,3.50
2019-03-16T18:06:04.831Z,3.00
2019-03-16T18:08:33.814Z,3.10
2019-03-16T18:11:02.877Z,3.40
2019-03-16T18:13:32.475Z,3.20
2019-03-16T18:16:01.441Z,3.17
2019-03-16T18:18:30.470Z,2.72
2019-03-16T18:20:59.425Z,3.33
2019-03-16T18:23:30.021Z,3.25
2019-03-16T18:26:05.087Z,3.10
2019-03-16T18:28:39.562Z,3.30
2019-03-16T18:31:09.957Z,3.33
2019-03-16T18:33:41.163Z,3.33
2019-03-16T18:36:11.657Z,3.33
2019-03-16T18:38:40.753Z,3.42
2019-03-16T18:41:10.769Z,3.95
2019-03-16T18:46:13.362Z,4.05
2019-03-16T18:48:43.026Z,3.80
2019-03-16T18:51:12.006Z,4.05
2019-03-16T18:53:40.963Z,3.80
2019-03-16T18:56:10.542Z,4.40
2019-03-16T18:58:40.153Z,4.58
2019-03-16T19:01:09.207Z,4.37
2019-03-16T19:03:38.494Z,4.70
2019-03-16T19:06:07.751Z,4.65
2019-03-16T19:08:36.744Z,4.72
2019-03-16T19:11:05.770Z,4.60
2019-03-16T19:13:34.859Z,4.40
2019-03-16T19:16:04.115Z,4.90
2019-03-16T19:18:33.336Z,4.28
2019-03-16T19:21:03.843Z,4.12
2019-03-16T19:23:35.109Z,4.35
2019-03-16T19:26:08.802Z,4.28
2019-03-16T19:28:37.784Z,4.20
2019-03-16T19:31:06.960Z,4.60
2019-03-16T19:33:35.900Z,4.53
2019-03-16T19:36:05.904Z,4.37
2019-03-16T19:41:03.959Z,4.42
2019-03-16T19:43:33.752Z,4.17
2019-03-16T19:46:02.828Z,4.12
2019-03-16T19:48:35.326Z,4.43
2019-03-16T19:51:05.211Z,4.17
2019-03-16T19:53:34.193Z,4.20
2019-03-16T19:56:09.541Z,4.83
2019-03-16T19:58:40.250Z,3.65
2019-03-16T20:01:11.656Z,4.50
2019-03-16T20:03:43.210Z,3.80
2019-03-16T20:06:25.082Z,4.80
2019-03-16T20:08:46.558Z,4.22
2019-03-16T20:11:22.590Z,4.00
2019-03-16T20:13:51.543Z,4.00
2019-03-16T20:16:20.499Z,4.03
2019-03-16T20:18:49.505Z,4.28
2019-03-16T20:21:23.282Z,4.12
2019-03-16T20:23:52.261Z,4.33
2019-03-16T20:26:21.317Z,4.20
2019-03-16T20:28:50.269Z,4.50
2019-03-16T20:31:20.873Z,4.53
2019-03-16T20:37:20.153Z,4.05
2019-03-16T20:39:51.608Z,4.20
2019-03-16T20:42:22.245Z,4.10
2019-03-16T20:44:51.215Z,4.00
2019-03-16T20:47:21.833Z,3.90
2019-03-16T20:49:54.085Z,3.98
2019-03-16T20:52:23.141Z,4.30
2019-03-16T20:54:55.167Z,4.03
2019-03-16T20:57:24.129Z,3.98
2019-03-16T20:59:53.180Z,4.08
2019-03-16T21:02:22.213Z,4.00
2019-03-16T21:04:55.015Z,4.55
2019-03-16T21:07:35.553Z,4.55
2019-03-16T21:10:05.473Z,4.50
2019-03-16T21:12:46.681Z,3.98
2019-03-16T21:15:17.292Z,3.87
2019-03-16T21:17:48.306Z,4.08
2019-03-16T21:20:22.446Z,4.47
2019-03-16T21:22:51.460Z,4.35
2019-03-16T21:25:25.805Z,4.00
2019-03-16T21:27:54.824Z,4.70
2019-03-16T21:30:23.929Z,4.95
2019-03-16T21:32:58.372Z,4.67
2019-03-16T21:35:31.770Z,4.33
2019-03-16T21:38:02.435Z,4.53
2019-03-16T21:40:31.489Z,4.58
2019-03-16T21:43:00.478Z,4.55
2019-03-16T21:45:29.437Z,4.40
2019-03-16T21:48:00.277Z,4.50
2019-03-16T21:50:29.254Z,4.17
2019-03-16T21:53:04.001Z,4.77
2019-03-16T21:55:37.546Z,4.42
2019-03-16T21:58:06.692Z,4.90
2019-03-16T22:00:35.638Z,4.63
2019-03-16T22:03:04.610Z,4.65
2019-03-16T22:05:35.772Z,4.67
2019-03-16T22:08:04.720Z,3.22
2019-03-16T22:10:33.674Z,4.20
2019-03-16T22:13:06.099Z,5.15
2019-03-16T22:15:37.459Z,4.10
2019-03-16T22:18:06.432Z,4.45
2019-03-16T22:20:38.464Z,4.53
2019-03-16T22:23:07.440Z,4.17
2019-03-16T22:25:36.442Z,4.80
2019-03-16T22:28:10.204Z,4.42
2019-03-16T22:30:40.496Z,4.20
2019-03-16T22:33:12.634Z,4.28
2019-03-16T22:35:41.648Z,4.47
2019-03-16T22:38:10.637Z,4.22
2019-03-16T22:40:39.675Z,4.20
2019-03-16T22:43:11.784Z,4.47
2019-03-16T22:45:40.759Z,4.30
2019-03-16T22:48:13.017Z,4.85
2019-03-16T22:50:41.959Z,3.90
2019-03-16T22:53:10.919Z,4.80
2019-03-16T22:55:39.877Z,4.28
2019-03-16T22:58:11.919Z,3.95
2019-03-16T23:00:48.473Z,3.95
2019-03-16T23:03:17.829Z,4.55
2019-03-16T23:05:47.454Z,4.08
2019-03-16T23:08:16.411Z,4.05
2019-03-16T23:10:48.442Z,4.40
2019-03-16T23:13:18.350Z,3.90
2019-03-16T23:15:50.913Z,3.70
2019-03-16T23:18:19.879Z,3.75
2019-03-16T23:20:50.651Z,3.35
2019-03-16T23:23:21.228Z,3.47
2019-03-16T23:25:55.170Z,3.75
2019-03-16T23:28:24.295Z,3.67
2019-03-16T23:30:53.294Z,3.93
2019-03-16T23:33:25.982Z,3.35
2019-03-16T23:35:54.995Z,4.15
2019-03-16T23:38:23.968Z,3.67
2019-03-16T23:40:54.273Z,4.08
2019-03-16T23:43:25.596Z,4.42
2019-03-16T23:45:56.763Z,4.15
2019-03-16T23:48:30.515Z,4.20
2019-03-16T23:50:59.654Z,4.25
2019-03-16T23:53:30.305Z,5.10
2019-03-16T23:56:00.474Z,4.85
2019-03-16T23:58:33.239Z,5.15
